createdAt,value
2022-12-22T00:00:33.635Z,51.80
2022-12-22T00:03:41.769Z,49.80
2022-12-22T00:06:29.941Z,49.30
2022-12-22T00:09:17.436Z,49.80
2022-12-22T00:12:05.463Z,65.90
2022-12-22T00:14:55.682Z,52.30
2022-12-22T00:17:47.598Z,54.00
2022-12-22T00:20:38.468Z,57.00
2022-12-22T00:23:29.351Z,60.30
2022-12-22T00:26:21.122Z,57.10
2022-12-22T00:29:18.311Z,56.10
2022-12-22T00:32:06.135Z,51.30
2022-12-22T00:35:01.981Z,76.90
2022-12-22T00:37:53.474Z,60.80
2022-12-22T00:40:52.485Z,59.10
2022-12-22T00:43:40.105Z,56.90
2022-12-22T00:46:30.691Z,65.30
2022-12-22T00:49:18.652Z,63.80
2022-12-22T00:52:06.488Z,60.20
2022-12-22T00:54:53.879Z,55.00
2022-12-22T00:57:45.415Z,60.90
2022-12-22T01:00:38.507Z,58.30
2022-12-22T01:03:35.721Z,55.30
2022-12-22T01:06:29.528Z,83.10
2022-12-22T01:09:17.725Z,70.70
2022-12-22T01:12:06.818Z,59.40
2022-12-22T01:14:55.121Z,67.70
2022-12-22T01:17:43.222Z,56.90
2022-12-22T01:20:31.361Z,58.20
2022-12-22T01:23:19.753Z,62.90
2022-12-22T01:26:10.178Z,55.90
2022-12-22T01:29:02.389Z,56.70
2022-12-22T01:31:51.961Z,55.50
2022-12-22T01:34:41.815Z,52.90
2022-12-22T01:37:29.160Z,61.00
2022-12-22T01:40:16.393Z,56.50
2022-12-22T01:43:03.986Z,57.20
2022-12-22T01:45:55.695Z,56.60
2022-12-22T01:48:48.835Z,61.40
2022-12-22T01:51:54.781Z,59.80
2022-12-22T01:54:42.346Z,54.40
2022-12-22T01:57:30.144Z,51.80
2022-12-22T02:00:18.040Z,61.20
2022-12-22T02:03:06.566Z,55.30
2022-12-22T02:06:00.644Z,56.70
2022-12-22T02:08:57.169Z,57.70
2022-12-22T02:12:17.952Z,56.60
2022-12-22T02:15:25.948Z,56.00
2022-12-22T02:18:39.624Z,54.90
2022-12-22T02:21:32.436Z,58.90
2022-12-22T02:24:31.565Z,58.40
2022-12-22T02:27:21.291Z,61.20
2022-12-22T02:30:15.910Z,62.30
2022-12-22T02:33:09.546Z,63.10
2022-12-22T02:36:15.512Z,59.90
2022-12-22T02:39:16.593Z,58.60
2022-12-22T02:42:14.772Z,59.00
2022-12-22T02:45:44.481Z,64.80
2022-12-22T02:48:59.299Z,62.60
2022-12-22T02:51:50.653Z,69.70
2022-12-22T02:54:39.159Z,55.90
2022-12-22T02:57:30.590Z,55.40
2022-12-22T03:00:17.978Z,56.30
2022-12-22T03:03:07.303Z,62.50
2022-12-22T03:05:54.909Z,57.10
2022-12-22T03:08:42.795Z,64.90
2022-12-22T03:11:30.344Z,69.80
2022-12-22T03:14:17.844Z,64.10
2022-12-22T03:17:09.068Z,56.60
2022-12-22T03:19:56.667Z,59.00
2022-12-22T03:22:44.078Z,63.90
2022-12-22T03:25:31.293Z,63.80
2022-12-22T03:28:05.934Z,60.00
2022-12-22T03:30:40.565Z,57.20
2022-12-22T03:33:10.954Z,59.00
2022-12-22T03:35:41.534Z,60.00
2022-12-22T03:38:13.792Z,59.40
2022-12-22T03:40:44.676Z,59.00
2022-12-22T03:43:36.628Z,56.60
2022-12-22T03:46:25.433Z,70.50
2022-12-22T03:49:13.779Z,65.40
2022-12-22T03:51:49.592Z,65.00
2022-12-22T03:54:24.102Z,58.80
2022-12-22T03:56:57.497Z,64.20
2022-12-22T03:59:30.949Z,56.70
2022-12-22T04:02:04.394Z,58.90
2022-12-22T04:04:35.516Z,57.70
2022-12-22T04:07:08.344Z,65.10
2022-12-22T04:09:58.992Z,63.30
2022-12-22T04:12:46.435Z,61.90
2022-12-22T04:15:19.790Z,66.60
2022-12-22T04:17:54.685Z,65.60
2022-12-22T04:20:33.125Z,57.40
2022-12-22T04:23:08.525Z,58.10
2022-12-22T04:25:48.920Z,60.00
2022-12-22T04:28:19.714Z,60.20
2022-12-22T04:30:53.687Z,62.50
2022-12-22T04:33:24.279Z,61.60
2022-12-22T04:35:54.653Z,61.40
2022-12-22T04:38:25.253Z,58.90
2022-12-22T04:40:55.863Z,61.60
2022-12-22T04:43:26.422Z,55.30
2022-12-22T04:45:58.394Z,62.10
2022-12-22T04:48:32.219Z,61.20
2022-12-22T04:51:03.526Z,63.20
2022-12-22T04:53:37.208Z,66.20
2022-12-22T04:56:12.074Z,62.60
2022-12-22T04:58:42.736Z,57.50
2022-12-22T05:01:18.898Z,56.10
2022-12-22T05:03:51.730Z,61.20
2022-12-22T05:06:22.303Z,62.90
2022-12-22T05:08:53.482Z,65.50
2022-12-22T05:11:23.857Z,60.10
2022-12-22T05:13:54.222Z,66.10
2022-12-22T05:16:28.087Z,64.50
2022-12-22T05:18:58.652Z,68.90
2022-12-22T05:21:30.368Z,68.30
2022-12-22T05:24:03.083Z,64.60
2022-12-22T05:26:33.523Z,62.30
2022-12-22T05:29:04.124Z,68.90
2022-12-22T05:31:35.832Z,65.40
2022-12-22T05:34:09.358Z,67.80
2022-12-22T05:36:41.762Z,68.70
2022-12-22T05:39:12.201Z,65.00
2022-12-22T05:41:42.770Z,61.20
2022-12-22T05:44:13.358Z,62.50
2022-12-22T05:46:45.002Z,68.30
2022-12-22T05:49:15.645Z,66.40
2022-12-22T05:51:46.310Z,66.20
2022-12-22T05:54:16.852Z,75.80
2022-12-22T05:56:49.352Z,73.50
2022-12-22T05:59:23.497Z,65.00
2022-12-22T06:01:53.944Z,60.80
2022-12-22T06:04:24.607Z,66.50
2022-12-22T06:06:55.255Z,64.40
2022-12-22T06:09:25.600Z,70.50
2022-12-22T06:11:58.313Z,71.00
2022-12-22T06:14:28.779Z,68.90
2022-12-22T06:17:00.491Z,65.00
2022-12-22T06:19:31.175Z,64.40
2022-12-22T06:22:05.735Z,61.10
2022-12-22T06:24:39.173Z,64.10
2022-12-22T06:27:11.564Z,62.30
2022-12-22T06:29:43.099Z,64.00
2022-12-22T06:32:13.668Z,67.60
2022-12-22T06:34:50.150Z,65.90
2022-12-22T06:37:25.210Z,67.90
2022-12-22T06:39:55.865Z,65.10
2022-12-22T06:42:43.202Z,62.70
2022-12-22T06:45:13.864Z,63.00
2022-12-22T06:47:46.315Z,67.00
2022-12-22T06:50:16.953Z,59.10
2022-12-22T06:52:47.522Z,61.10
2022-12-22T06:55:18.229Z,67.10
2022-12-22T06:57:48.652Z,63.60
2022-12-22T07:00:19.519Z,62.60
2022-12-22T07:02:58.024Z,57.40
2022-12-22T07:05:30.618Z,57.70
2022-12-22T07:08:08.695Z,58.80
2022-12-22T07:10:57.264Z,61.80
2022-12-22T07:13:36.430Z,65.60
2022-12-22T07:16:09.420Z,58.10
2022-12-22T07:18:46.600Z,59.10
2022-12-22T07:21:16.976Z,60.10
2022-12-22T07:23:50.451Z,61.40
2022-12-22T07:26:20.952Z,57.00
2022-12-22T07:28:51.565Z,63.10
2022-12-22T07:31:25.471Z,55.90
2022-12-22T07:34:00.595Z,62.80
2022-12-22T07:36:31.277Z,62.10
2022-12-22T07:39:01.928Z,62.90
2022-12-22T07:41:54.082Z,51.70
2022-12-22T07:44:25.772Z,55.20
2022-12-22T07:46:56.587Z,58.50
2022-12-22T07:49:44.216Z,55.60
2022-12-22T07:52:17.222Z,55.80
2022-12-22T07:54:52.393Z,59.70
2022-12-22T07:57:22.821Z,62.10
2022-12-22T07:59:56.760Z,62.90
2022-12-22T08:02:29.035Z,63.30
2022-12-22T08:05:04.038Z,57.20
2022-12-22T08:07:36.438Z,60.40
2022-12-22T08:10:07.146Z,58.20
2022-12-22T08:12:41.390Z,62.10
2022-12-22T08:15:12.820Z,60.00
2022-12-22T08:17:53.938Z,55.20
2022-12-22T08:20:26.693Z,61.90
2022-12-22T08:22:58.949Z,57.80
2022-12-22T08:25:29.652Z,55.40
2022-12-22T08:28:04.201Z,58.50
2022-12-22T08:30:38.525Z,57.00
2022-12-22T08:33:11.107Z,59.40
2022-12-22T08:35:44.176Z,53.50
2022-12-22T08:38:17.792Z,54.30
2022-12-22T08:40:51.731Z,57.90
2022-12-22T08:43:25.531Z,51.90
2022-12-22T08:46:00.293Z,48.30
2022-12-22T08:48:31.657Z,49.00
2022-12-22T08:51:05.786Z,52.70
2022-12-22T08:54:03.883Z,50.20
2022-12-22T08:56:35.162Z,49.60
2022-12-22T08:59:11.590Z,53.30
2022-12-22T09:01:48.318Z,56.20
2022-12-22T09:04:27.931Z,49.40
2022-12-22T09:06:59.985Z,48.00
2022-12-22T09:09:36.946Z,47.70
2022-12-22T09:12:07.862Z,48.80
2022-12-22T09:14:38.539Z,46.50
2022-12-22T09:17:09.182Z,54.70
2022-12-22T09:19:39.662Z,52.20
2022-12-22T09:22:18.314Z,48.00
2022-12-22T09:24:52.249Z,47.90
2022-12-22T09:27:22.684Z,45.00
2022-12-22T09:29:58.661Z,45.40
2022-12-22T09:32:31.710Z,46.60
2022-12-22T09:35:02.657Z,48.30
2022-12-22T09:37:33.241Z,50.80
2022-12-22T09:40:03.989Z,44.90
2022-12-22T09:42:38.594Z,45.60
2022-12-22T09:45:20.667Z,44.40
2022-12-22T09:47:57.211Z,42.80
2022-12-22T09:50:34.977Z,40.90
2022-12-22T09:53:08.450Z,42.00
2022-12-22T09:55:43.183Z,44.10
2022-12-22T09:58:27.523Z,41.00
2022-12-22T10:01:10.141Z,45.10
2022-12-22T10:03:48.694Z,41.20
2022-12-22T10:06:31.369Z,41.60
2022-12-22T10:09:35.893Z,42.00
2022-12-22T10:12:00.411Z,36.70
2022-12-22T10:14:44.410Z,40.30
2022-12-22T10:17:25.494Z,39.50
2022-12-22T10:20:11.124Z,37.90
2022-12-22T10:22:53.123Z,36.20
2022-12-22T10:26:17.281Z,39.80
2022-12-22T10:28:42.813Z,36.20
2022-12-22T10:31:23.609Z,36.70
2022-12-22T10:34:00.888Z,33.70
2022-12-22T10:36:34.572Z,37.50
2022-12-22T10:39:11.288Z,36.30
2022-12-22T10:41:53.535Z,35.10
2022-12-22T10:44:39.277Z,32.10
2022-12-22T10:47:18.244Z,30.40
2022-12-22T10:52:30.878Z,30.60
2022-12-22T10:55:21.819Z,27.60
2022-12-22T10:57:52.495Z,31.90
2022-12-22T11:00:32.352Z,29.20
2022-12-22T11:03:06.258Z,32.20
2022-12-22T11:05:37.153Z,28.40
2022-12-22T11:08:23.525Z,26.10
2022-12-22T11:11:24.044Z,26.70
2022-12-22T11:14:11.628Z,31.40
2022-12-22T11:16:56.179Z,28.70
2022-12-22T11:19:32.840Z,25.90
2022-12-22T11:22:07.303Z,28.80
2022-12-22T11:24:57.044Z,30.80
2022-12-22T11:27:34.269Z,26.60
2022-12-22T11:30:40.226Z,28.80
2022-12-22T11:33:33.838Z,27.30
2022-12-22T11:36:07.381Z,31.10
2022-12-22T11:38:58.592Z,28.00
2022-12-22T11:41:44.733Z,29.50
2022-12-22T11:44:21.406Z,28.70
2022-12-22T11:46:55.851Z,28.30
2022-12-22T11:49:51.404Z,25.80
2022-12-22T11:52:50.051Z,26.70
2022-12-22T11:55:35.033Z,27.10
2022-12-22T11:58:23.899Z,27.30
2022-12-22T12:01:14.893Z,28.20
2022-12-22T12:04:19.022Z,29.10
2022-12-22T12:07:11.469Z,27.00
2022-12-22T12:10:29.606Z,24.30
2022-12-22T12:13:24.050Z,26.10
2022-12-22T12:16:02.326Z,26.30
2022-12-22T12:18:42.862Z,24.90
2022-12-22T12:21:30.670Z,24.70
2022-12-22T12:24:23.613Z,27.90
2022-12-22T12:27:36.671Z,24.00
2022-12-22T12:33:36.279Z,25.80
2022-12-22T12:36:44.298Z,27.40
2022-12-22T12:39:30.126Z,28.80
2022-12-22T12:42:16.305Z,27.20
2022-12-22T12:44:52.216Z,26.10
2022-12-22T12:47:32.590Z,24.50
2022-12-22T12:50:35.452Z,25.80
2022-12-22T12:53:11.707Z,30.40
2022-12-22T12:55:40.119Z,28.20
2022-12-22T12:58:32.556Z,26.30
2022-12-22T13:01:33.857Z,28.10
2022-12-22T13:04:04.605Z,29.20
2022-12-22T13:06:50.583Z,31.00
2022-12-22T13:12:52.817Z,32.90
2022-12-22T13:15:39.335Z,32.00
2022-12-22T13:18:51.321Z,30.80
2022-12-22T13:21:52.440Z,30.20
2022-12-22T13:24:25.148Z,31.00
2022-12-22T13:27:09.046Z,29.90
2022-12-22T13:29:49.555Z,30.50
2022-12-22T13:32:36.204Z,30.70
2022-12-22T13:35:33.104Z,30.50
2022-12-22T13:38:08.664Z,33.70
2022-12-22T13:40:44.984Z,32.80
2022-12-22T13:43:18.211Z,30.10
2022-12-22T13:46:03.387Z,28.20
2022-12-22T13:48:51.960Z,31.60
2022-12-22T13:51:33.026Z,30.00
2022-12-22T13:54:20.401Z,29.70
2022-12-22T13:57:04.375Z,28.60
2022-12-22T13:59:42.586Z,28.90
2022-12-22T14:02:14.427Z,33.60
2022-12-22T14:04:52.557Z,33.30
2022-12-22T14:07:29.559Z,29.80
2022-12-22T14:10:03.066Z,28.60
2022-12-22T14:12:46.713Z,30.20
2022-12-22T14:15:24.186Z,33.70
2022-12-22T14:17:57.729Z,29.70
2022-12-22T14:20:41.933Z,33.40
2022-12-22T14:23:45.518Z,30.90
2022-12-22T14:26:21.993Z,35.40
2022-12-22T14:28:59.450Z,31.30
2022-12-22T14:31:36.495Z,31.20
2022-12-22T14:34:07.009Z,32.30
2022-12-22T14:36:46.330Z,31.80
2022-12-22T14:39:25.216Z,34.70
2022-12-22T14:42:07.034Z,34.80
2022-12-22T14:44:49.170Z,34.80
2022-12-22T14:47:23.993Z,35.50
2022-12-22T14:50:04.722Z,30.70
2022-12-22T14:52:53.569Z,30.20
2022-12-22T14:55:29.892Z,33.40
2022-12-22T14:58:17.106Z,33.80
2022-12-22T15:00:50.382Z,34.10
2022-12-22T15:03:27.028Z,33.40
2022-12-22T15:06:00.799Z,35.50
2022-12-22T15:08:45.109Z,35.90
2022-12-22T15:11:19.047Z,40.20
2022-12-22T15:13:54.983Z,32.50
2022-12-22T15:16:26.300Z,32.60
2022-12-22T15:18:57.010Z,33.00
2022-12-22T15:21:27.468Z,35.10
2022-12-22T15:23:58.146Z,33.50
2022-12-22T15:26:30.653Z,38.10
2022-12-22T15:29:05.697Z,35.10
2022-12-22T15:31:36.404Z,35.90
2022-12-22T15:34:20.920Z,36.50
2022-12-22T15:36:53.543Z,36.80
2022-12-22T15:39:25.076Z,34.50
2022-12-22T15:41:56.350Z,33.40
2022-12-22T15:44:26.734Z,35.60
2022-12-22T15:46:59.430Z,35.80
2022-12-22T15:49:34.412Z,37.40
2022-12-22T15:52:07.850Z,32.80
2022-12-22T15:54:38.634Z,30.40
2022-12-22T15:57:14.343Z,32.90
2022-12-22T15:59:44.897Z,34.90
2022-12-22T16:02:16.475Z,34.80
2022-12-22T16:04:48.851Z,35.10
2022-12-22T16:07:23.004Z,32.30
2022-12-22T16:09:53.502Z,33.60
2022-12-22T16:12:27.323Z,30.50
2022-12-22T16:15:00.002Z,38.30
2022-12-22T16:17:31.493Z,32.90
2022-12-22T16:20:02.118Z,34.20
2022-12-22T16:22:37.885Z,35.90
2022-12-22T16:25:18.057Z,34.40
2022-12-22T16:27:50.311Z,35.70
2022-12-22T16:30:26.811Z,35.50
2022-12-22T16:32:57.576Z,32.60
2022-12-22T16:35:32.574Z,31.60
2022-12-22T16:38:04.256Z,33.40
2022-12-22T16:40:41.564Z,36.70
2022-12-22T16:46:17.681Z,37.60
2022-12-22T16:48:57.915Z,39.70
2022-12-22T16:51:35.024Z,43.30
2022-12-22T16:54:09.795Z,35.80
2022-12-22T16:56:43.736Z,35.90
2022-12-22T16:59:14.832Z,39.20
2022-12-22T17:01:56.593Z,37.60
2022-12-22T17:04:32.891Z,39.80
2022-12-22T17:07:05.608Z,38.90
2022-12-22T17:09:50.010Z,39.60
2022-12-22T17:12:32.006Z,38.90
2022-12-22T17:15:03.751Z,37.00
2022-12-22T17:17:40.153Z,35.70
2022-12-22T17:20:21.565Z,39.60
2022-12-22T17:22:59.680Z,38.00
2022-12-22T17:25:32.696Z,39.50
2022-12-22T17:34:58.452Z,40.00
2022-12-22T17:37:37.187Z,39.40
2022-12-22T17:40:10.465Z,40.80
2022-12-22T17:42:40.942Z,38.20
2022-12-22T17:45:20.626Z,42.00
2022-12-22T17:47:51.133Z,37.60
2022-12-22T17:50:24.268Z,35.50
2022-12-22T17:52:58.003Z,43.40
2022-12-22T17:58:20.925Z,38.70
2022-12-22T18:00:51.662Z,33.30
2022-12-22T18:03:24.400Z,31.80
2022-12-22T18:05:57.385Z,36.00
2022-12-22T18:08:30.168Z,34.00
2022-12-22T18:11:01.109Z,34.60
2022-12-22T18:13:33.073Z,33.30
2022-12-22T18:16:04.020Z,35.30
2022-12-22T18:18:35.714Z,36.40
2022-12-22T18:21:08.294Z,38.30
2022-12-22T18:23:47.951Z,34.20
2022-12-22T18:26:36.174Z,29.20
2022-12-22T18:29:06.754Z,34.50
2022-12-22T18:31:37.541Z,34.70
2022-12-22T18:34:11.015Z,31.60
2022-12-22T18:36:46.292Z,31.10
2022-12-22T18:39:20.660Z,30.10
2022-12-22T18:41:54.732Z,26.70
2022-12-22T18:44:26.557Z,28.70
2022-12-22T18:46:58.047Z,29.60
2022-12-22T18:49:28.902Z,29.10
2022-12-22T18:52:05.078Z,26.80
2022-12-22T18:54:39.824Z,29.50
2022-12-22T18:57:21.911Z,27.70
